createdAt,value
2018-05-03T00:00:25.888Z,97.70
2018-05-03T00:02:53.352Z,97.80
2018-05-03T00:05:20.824Z,97.80
2018-05-03T00:07:48.272Z,98.20
2018-05-03T00:10:16.616Z,98.50
2018-05-03T00:12:44.071Z,98.50
2018-05-03T00:15:11.623Z,98.40
2018-05-03T00:17:39.090Z,98.50
2018-05-03T00:20:06.600Z,98.60
2018-05-03T00:22:34.130Z,98.80
2018-05-03T00:25:02.341Z,99.10
2018-05-03T00:27:29.803Z,99.50
2018-05-03T00:29:57.315Z,99.40
2018-05-03T00:32:24.776Z,99.50
2018-05-03T00:34:52.228Z,99.40
2018-05-03T00:37:19.712Z,99.70
2018-05-03T00:39:47.164Z,99.80
2018-05-03T00:42:14.952Z,99.70
2018-05-03T00:44:42.396Z,99.90
2018-05-03T00:47:09.860Z,99.80
2018-05-03T00:49:37.301Z,99.90
2018-05-03T00:52:05.521Z,99.90
2018-05-03T00:54:44.928Z,99.90
2018-05-03T00:57:12.332Z,99.90
2018-05-03T00:59:39.781Z,99.90
2018-05-03T01:02:08.337Z,99.90
2018-05-03T01:04:35.812Z,99.90
2018-05-03T01:07:03.276Z,99.90
2018-05-03T01:09:30.728Z,99.90
2018-05-03T01:11:58.197Z,99.90
2018-05-03T01:14:25.656Z,99.90
2018-05-03T01:16:53.158Z,99.90
2018-05-03T01:19:20.672Z,99.90
2018-05-03T01:21:48.916Z,99.90
2018-05-03T01:24:16.383Z,99.90
2018-05-03T01:26:43.833Z,99.90
2018-05-03T01:29:11.284Z,99.90
2018-05-03T01:31:38.743Z,99.90
2018-05-03T01:34:06.201Z,99.90
2018-05-03T01:36:34.412Z,99.90
2018-05-03T01:39:01.981Z,99.90
2018-05-03T01:41:30.184Z,99.90
2018-05-03T01:43:57.688Z,99.90
2018-05-03T01:46:25.137Z,99.90
2018-05-03T01:48:53.397Z,99.90
2018-05-03T01:51:21.686Z,99.90
2018-05-03T01:53:49.262Z,99.90
2018-05-03T01:56:16.706Z,99.90
2018-05-03T01:58:44.948Z,99.60
2018-05-03T02:01:12.388Z,99.60
2018-05-03T02:03:39.840Z,99.80
2018-05-03T02:06:08.084Z,98.80
2018-05-03T02:08:35.553Z,98.80
2018-05-03T02:11:03.012Z,98.80
2018-05-03T02:13:30.492Z,98.60
2018-05-03T02:15:57.956Z,98.40
2018-05-03T02:18:25.443Z,98.40
2018-05-03T02:20:52.900Z,98.50
2018-05-03T02:23:20.387Z,98.30
2018-05-03T02:25:47.944Z,98.50
2018-05-03T02:28:15.392Z,98.60
2018-05-03T02:30:42.856Z,98.60
2018-05-03T02:33:10.302Z,98.60
2018-05-03T02:35:38.600Z,98.50
2018-05-03T02:38:06.812Z,98.60
2018-05-03T02:40:34.276Z,98.60
2018-05-03T02:43:01.726Z,98.40
2018-05-03T02:45:29.947Z,98.50
2018-05-03T02:47:57.465Z,98.40
2018-05-03T02:50:25.694Z,98.80
2018-05-03T02:52:53.170Z,98.50
2018-05-03T02:55:20.651Z,98.80
2018-05-03T02:58:05.761Z,98.60
2018-05-03T03:00:51.037Z,98.60
2018-05-03T03:07:04.316Z,98.70
2018-05-03T03:13:04.343Z,98.80
2018-05-03T03:15:43.608Z,98.90
2018-05-03T03:18:28.692Z,98.70
2018-05-03T03:21:13.660Z,98.90
2018-05-03T03:23:58.931Z,98.60
2018-05-03T03:26:44.136Z,98.50
2018-05-03T03:29:29.317Z,98.80
2018-05-03T03:32:14.834Z,98.80
2018-05-03T03:34:42.292Z,98.80
2018-05-03T03:37:32.248Z,98.90
2018-05-03T03:40:17.417Z,98.60
2018-05-03T03:45:54.764Z,99.40
2018-05-03T03:48:23.762Z,99.90
2018-05-03T03:50:51.238Z,99.90
2018-05-03T03:53:18.736Z,99.90
2018-05-03T03:57:25.847Z,99.90
2018-05-03T03:59:54.100Z,99.90
2018-05-03T04:02:21.596Z,99.90
2018-05-03T04:04:49.887Z,99.50
2018-05-03T04:07:18.128Z,99.60
2018-05-03T04:09:45.618Z,99.60
2018-05-03T04:12:13.085Z,99.60
2018-05-03T04:14:40.547Z,99.20
2018-05-03T04:17:08.045Z,99.20
2018-05-03T04:19:47.232Z,99.20
2018-05-03T04:22:27.412Z,99.00
2018-05-03T04:25:06.869Z,99.00
2018-05-03T04:27:35.100Z,99.00
2018-05-03T04:30:02.568Z,98.90
2018-05-03T04:32:30.036Z,99.10
2018-05-03T04:34:57.637Z,99.00
2018-05-03T04:37:25.121Z,98.90
2018-05-03T04:39:52.589Z,98.70
2018-05-03T04:42:20.057Z,98.80
2018-05-03T04:44:47.512Z,98.60
2018-05-03T04:47:14.976Z,97.80
2018-05-03T04:49:42.436Z,97.70
2018-05-03T04:52:09.917Z,97.30
2018-05-03T04:54:37.365Z,96.60
2018-05-03T04:57:04.824Z,96.40
2018-05-03T04:59:32.383Z,96.50
2018-05-03T05:02:00.812Z,96.10
2018-05-03T05:04:28.277Z,96.20
2018-05-03T05:06:55.733Z,96.30
2018-05-03T05:09:23.204Z,96.20
2018-05-03T05:11:50.680Z,96.10
2018-05-03T05:14:18.139Z,96.00
2018-05-03T05:16:45.589Z,96.00
2018-05-03T05:19:13.052Z,96.10
2018-05-03T05:21:41.268Z,95.40
2018-05-03T05:24:08.743Z,95.40
2018-05-03T05:26:36.185Z,95.20
2018-05-03T05:29:03.663Z,95.00
2018-05-03T05:31:31.235Z,94.80
2018-05-03T05:33:58.692Z,94.90
2018-05-03T05:36:26.921Z,94.30
2018-05-03T05:38:54.449Z,94.30
2018-05-03T05:41:21.962Z,94.30
2018-05-03T05:43:49.505Z,94.50
2018-05-03T05:46:16.969Z,94.80
2018-05-03T05:48:44.422Z,94.30
2018-05-03T05:51:12.704Z,94.30
2018-05-03T05:53:40.100Z,94.30
2018-05-03T05:56:07.561Z,94.30
2018-05-03T05:58:35.011Z,94.30
2018-05-03T06:01:03.248Z,94.50
2018-05-03T06:03:30.707Z,94.30
2018-05-03T06:05:58.173Z,94.20
2018-05-03T06:08:25.640Z,93.90
2018-05-03T06:10:53.157Z,93.90
2018-05-03T06:13:20.620Z,93.70
2018-05-03T06:15:48.077Z,93.60
2018-05-03T06:18:15.558Z,93.60
2018-05-03T06:20:43.020Z,93.60
2018-05-03T06:23:10.477Z,94.00
2018-05-03T06:25:37.941Z,93.50
2018-05-03T06:28:05.401Z,93.30
2018-05-03T06:30:32.848Z,93.30
2018-05-03T06:33:01.085Z,92.50
2018-05-03T06:35:28.553Z,92.40
2018-05-03T06:37:56.093Z,91.70
2018-05-03T06:40:24.310Z,91.10
2018-05-03T06:42:51.810Z,91.10
2018-05-03T06:45:19.309Z,90.20
2018-05-03T06:47:46.827Z,89.50
2018-05-03T06:50:14.272Z,88.40
2018-05-03T06:52:41.732Z,86.60
2018-05-03T06:55:09.192Z,87.00
2018-05-03T06:57:36.709Z,87.20
2018-05-03T07:00:04.161Z,86.60
2018-05-03T07:02:31.608Z,84.30
2018-05-03T07:04:59.077Z,82.10
2018-05-03T07:07:26.541Z,81.80
2018-05-03T07:09:54.878Z,80.00
2018-05-03T07:12:23.028Z,79.90
2018-05-03T07:14:50.728Z,79.70
2018-05-03T07:17:18.268Z,79.10
2018-05-03T07:19:45.840Z,78.90
2018-05-03T07:22:14.059Z,76.80
2018-05-03T07:24:41.508Z,76.90
2018-05-03T07:27:08.952Z,76.80
2018-05-03T07:29:37.180Z,74.90
2018-05-03T07:32:04.629Z,74.80
2018-05-03T07:34:32.197Z,74.10
2018-05-03T07:37:00.420Z,72.80
2018-05-03T07:39:28.058Z,72.80
2018-05-03T07:41:56.272Z,70.10
2018-05-03T07:44:23.740Z,70.00
2018-05-03T07:46:51.248Z,71.00
2018-05-03T07:49:18.693Z,70.00
2018-05-03T07:51:46.267Z,69.40
2018-05-03T07:54:13.728Z,68.30
2018-05-03T07:56:41.223Z,68.30
2018-05-03T07:59:08.648Z,66.80
2018-05-03T08:01:36.116Z,66.10
2018-05-03T08:04:03.686Z,64.50
2018-05-03T08:06:31.913Z,64.10
2018-05-03T08:08:59.400Z,64.00
2018-05-03T08:11:26.870Z,66.40
2018-05-03T08:13:54.320Z,65.60
2018-05-03T08:16:21.809Z,67.00
2018-05-03T08:18:49.268Z,66.80
2018-05-03T08:21:16.768Z,68.70
2018-05-03T08:23:44.986Z,65.80
2018-05-03T08:26:12.451Z,65.70
2018-05-03T08:28:40.681Z,66.60
2018-05-03T08:31:08.128Z,66.70
2018-05-03T08:33:35.587Z,68.90
2018-05-03T08:36:03.049Z,68.90
2018-05-03T08:38:30.519Z,67.10
2018-05-03T08:40:57.989Z,66.20
2018-05-03T08:43:25.561Z,64.70
2018-05-03T08:45:53.769Z,61.10
2018-05-03T08:48:21.271Z,61.00
2018-05-03T08:50:48.781Z,58.60
2018-05-03T08:53:17.000Z,59.70
2018-05-03T08:55:44.457Z,59.70
2018-05-03T08:58:11.908Z,59.40
2018-05-03T09:00:39.363Z,59.30
2018-05-03T09:03:07.592Z,57.00
2018-05-03T09:05:35.038Z,56.90
2018-05-03T09:08:02.492Z,55.90
2018-05-03T09:10:30.716Z,57.70
2018-05-03T09:12:58.184Z,57.50
2018-05-03T09:15:25.689Z,57.90
2018-05-03T09:17:53.156Z,59.40
2018-05-03T09:20:20.740Z,57.10
2018-05-03T09:22:48.190Z,57.10
2018-05-03T09:25:15.756Z,57.70
2018-05-03T09:27:43.228Z,58.50
2018-05-03T09:30:10.697Z,61.10
2018-05-03T09:32:38.182Z,60.60
2018-05-03T09:35:05.741Z,61.90
2018-05-03T09:37:33.193Z,62.80
2018-05-03T09:40:00.653Z,61.00
2018-05-03T09:42:28.107Z,56.50
2018-05-03T09:44:56.352Z,54.30
2018-05-03T09:47:23.816Z,54.30
2018-05-03T09:49:51.333Z,55.50
2018-05-03T09:52:18.820Z,53.90
2018-05-03T09:54:46.274Z,46.70
2018-05-03T09:57:14.506Z,46.00
2018-05-03T09:59:42.046Z,45.90
2018-05-03T10:02:09.553Z,45.10
2018-05-03T10:04:37.088Z,46.60
2018-05-03T10:07:05.310Z,51.70
2018-05-03T10:09:32.757Z,51.30
2018-05-03T10:12:00.216Z,52.80
2018-05-03T10:14:27.668Z,52.30
2018-05-03T10:16:55.904Z,48.00
2018-05-03T10:19:23.388Z,48.00
2018-05-03T10:21:50.964Z,46.40
2018-05-03T10:24:18.421Z,45.40
2018-05-03T10:26:45.891Z,44.80
2018-05-03T10:29:13.353Z,46.00
2018-05-03T10:31:40.832Z,43.30
2018-05-03T10:34:08.288Z,40.40
2018-05-03T10:36:35.740Z,38.10
2018-05-03T10:39:03.200Z,38.20
2018-05-03T10:41:30.716Z,36.80
2018-05-03T10:43:58.288Z,40.00
2018-05-03T10:46:25.743Z,37.70
2018-05-03T10:48:53.262Z,38.10
2018-05-03T10:51:20.735Z,37.90
2018-05-03T10:53:48.990Z,37.20
2018-05-03T10:56:16.518Z,37.10
2018-05-03T10:58:44.736Z,37.30
2018-05-03T11:01:12.184Z,37.30
2018-05-03T11:03:39.908Z,38.50
2018-05-03T11:06:07.367Z,37.80
2018-05-03T11:08:34.808Z,38.60
2018-05-03T11:11:02.455Z,39.30
2018-05-03T11:13:29.825Z,38.70
2018-05-03T11:15:57.352Z,39.50
2018-05-03T11:18:24.805Z,40.80
2018-05-03T11:20:52.286Z,40.50
2018-05-03T11:23:19.737Z,41.20
2018-05-03T11:25:47.232Z,40.70
2018-05-03T11:28:14.676Z,40.30
2018-05-03T11:30:42.129Z,40.40
2018-05-03T11:33:09.576Z,38.70
2018-05-03T11:35:37.800Z,38.20
2018-05-03T11:38:05.256Z,38.10
2018-05-03T11:40:32.729Z,37.70
2018-05-03T11:43:00.181Z,37.00
2018-05-03T11:45:28.420Z,36.00
2018-05-03T11:47:55.874Z,36.00
2018-05-03T11:50:23.342Z,37.30
2018-05-03T11:52:50.860Z,36.40
2018-05-03T11:55:19.394Z,37.00
2018-05-03T11:57:46.892Z,36.70
2018-05-03T12:00:14.344Z,37.30
2018-05-03T12:02:41.893Z,36.50
2018-05-03T12:05:09.340Z,37.00
2018-05-03T12:07:37.589Z,35.50
2018-05-03T12:10:05.036Z,35.40
2018-05-03T12:12:32.543Z,36.60
2018-05-03T12:15:00.005Z,36.10
2018-05-03T12:17:27.476Z,38.20
2018-05-03T12:19:54.937Z,37.80
2018-05-03T12:22:22.404Z,40.10
2018-05-03T12:24:49.884Z,40.20
2018-05-03T12:27:17.351Z,37.80
2018-05-03T12:29:44.821Z,38.80
2018-05-03T12:32:12.273Z,40.60
2018-05-03T12:34:39.736Z,41.50
2018-05-03T12:37:07.180Z,39.20
2018-05-03T12:39:35.412Z,40.20
2018-05-03T12:42:02.861Z,40.30
2018-05-03T12:44:30.421Z,39.60
2018-05-03T12:46:58.624Z,38.60
2018-05-03T12:49:26.092Z,38.50
2018-05-03T12:51:53.642Z,39.60
2018-05-03T12:54:21.041Z,41.20
2018-05-03T12:56:48.488Z,42.00
2018-05-03T12:59:17.497Z,41.80
2018-05-03T13:01:44.966Z,38.50
2018-05-03T13:04:12.408Z,37.60
2018-05-03T13:06:40.636Z,41.70
2018-05-03T13:09:08.096Z,41.60
2018-05-03T13:11:35.568Z,42.50
2018-05-03T13:14:03.025Z,42.60
2018-05-03T13:16:30.485Z,42.90
2018-05-03T13:18:58.724Z,44.00
2018-05-03T13:21:26.196Z,43.70
2018-05-03T13:23:53.667Z,41.80
2018-05-03T13:26:21.145Z,41.50
2018-05-03T13:28:48.601Z,42.40
2018-05-03T13:31:16.073Z,39.80
2018-05-03T13:33:43.545Z,40.60
2018-05-03T13:36:11.013Z,40.70
2018-05-03T13:38:38.476Z,43.60
2018-05-03T13:41:05.921Z,41.20
2018-05-03T13:43:33.385Z,41.60
2018-05-03T13:46:00.829Z,41.30
2018-05-03T13:48:28.313Z,40.20
2018-05-03T13:50:56.539Z,40.80
2018-05-03T13:53:24.062Z,40.60
2018-05-03T13:55:51.743Z,39.90
2018-05-03T13:58:19.985Z,38.10
2018-05-03T14:00:47.520Z,38.10
2018-05-03T14:03:14.903Z,37.50
2018-05-03T14:05:42.364Z,37.90
2018-05-03T14:08:09.864Z,38.50
2018-05-03T14:10:37.312Z,37.60
2018-05-03T14:13:04.846Z,37.00
2018-05-03T14:15:32.347Z,36.70
2018-05-03T14:17:59.792Z,36.50
2018-05-03T14:20:28.022Z,37.00
2018-05-03T14:22:55.485Z,36.90
2018-05-03T14:25:22.965Z,39.50
2018-05-03T14:27:50.448Z,39.50
2018-05-03T14:30:17.928Z,38.20
2018-05-03T14:32:45.481Z,39.20
2018-05-03T14:35:12.949Z,40.50
2018-05-03T14:37:40.398Z,40.40
2018-05-03T14:40:07.860Z,40.60
2018-05-03T14:42:35.318Z,41.30
2018-05-03T14:45:02.868Z,42.80
2018-05-03T14:47:30.312Z,43.00
2018-05-03T14:49:57.776Z,42.90
2018-05-03T14:52:25.235Z,43.90
2018-05-03T14:54:52.769Z,43.80
2018-05-03T14:57:20.235Z,45.50
2018-05-03T14:59:48.967Z,45.60
2018-05-03T15:02:16.445Z,45.50
2018-05-03T15:04:43.949Z,43.90
2018-05-03T15:07:11.416Z,44.00
2018-05-03T15:09:38.946Z,44.70
2018-05-03T15:12:07.180Z,45.20
2018-05-03T15:14:34.630Z,45.20
2018-05-03T15:17:02.124Z,47.00
2018-05-03T15:19:29.535Z,46.90
2018-05-03T15:21:57.766Z,46.30
2018-05-03T15:24:25.209Z,46.30
2018-05-03T15:26:52.701Z,47.50
2018-05-03T15:29:20.200Z,48.20
2018-05-03T15:31:47.800Z,47.10
2018-05-03T15:34:16.112Z,48.90
2018-05-03T15:36:43.556Z,48.90
2018-05-03T15:39:11.801Z,50.10
2018-05-03T15:41:39.239Z,50.00
2018-05-03T15:44:06.713Z,50.30
2018-05-03T15:46:34.156Z,51.00
2018-05-03T15:49:02.396Z,50.80
2018-05-03T15:51:29.841Z,50.90
2018-05-03T15:53:57.344Z,52.30
2018-05-03T15:56:24.803Z,51.10
2018-05-03T15:58:52.262Z,51.80
2018-05-03T16:01:19.709Z,50.70
2018-05-03T16:03:47.236Z,50.60
2018-05-03T16:06:14.676Z,51.60
2018-05-03T16:08:42.149Z,51.70
2018-05-03T16:11:09.596Z,52.50
2018-05-03T16:13:37.067Z,50.00
2018-05-03T16:16:04.556Z,49.20
2018-05-03T16:18:32.017Z,50.80
2018-05-03T16:20:59.523Z,51.30
2018-05-03T16:23:26.981Z,51.20
2018-05-03T16:25:54.453Z,51.70
2018-05-03T16:28:23.461Z,53.10
2018-05-03T16:30:50.912Z,52.50
2018-05-03T16:33:18.392Z,51.90
2018-05-03T16:35:45.868Z,53.90
2018-05-03T16:38:13.317Z,52.80
2018-05-03T16:40:40.876Z,53.00
2018-05-03T16:43:08.385Z,54.60
2018-05-03T16:45:36.073Z,53.50
2018-05-03T16:48:03.590Z,54.30
2018-05-03T16:50:31.409Z,54.80
2018-05-03T16:52:58.874Z,54.50
2018-05-03T16:55:26.377Z,53.80
2018-05-03T16:57:54.606Z,55.00
2018-05-03T17:00:22.053Z,54.90
2018-05-03T17:02:50.416Z,53.40
2018-05-03T17:05:19.400Z,54.60
2018-05-03T17:07:46.880Z,54.60
2018-05-03T17:10:14.320Z,56.30
2018-05-03T17:12:41.784Z,54.00
2018-05-03T17:15:09.282Z,54.50
2018-05-03T17:17:36.753Z,55.60
2018-05-03T17:20:04.228Z,55.40
2018-05-03T17:22:31.697Z,54.00
2018-05-03T17:24:59.154Z,54.60
2018-05-03T17:27:26.649Z,56.70
2018-05-03T17:29:54.089Z,54.30
2018-05-03T17:32:21.570Z,55.40
2018-05-03T17:34:49.040Z,54.10
2018-05-03T17:37:16.504Z,55.40
2018-05-03T17:39:43.978Z,56.50
2018-05-03T17:42:11.425Z,54.60
2018-05-03T17:44:38.889Z,56.20
2018-05-03T17:47:06.340Z,55.70
2018-05-03T17:49:34.569Z,56.30
2018-05-03T17:52:02.120Z,56.30
2018-05-03T17:54:29.622Z,56.80
2018-05-03T17:56:57.119Z,58.10
2018-05-03T17:59:25.249Z,56.90
2018-05-03T18:01:53.670Z,57.40
2018-05-03T18:04:21.150Z,56.70
2018-05-03T18:06:48.589Z,59.20
2018-05-03T18:09:16.048Z,57.80
2018-05-03T18:11:43.496Z,57.80
2018-05-03T18:14:11.741Z,59.00
2018-05-03T18:16:39.200Z,58.90
2018-05-03T18:19:06.740Z,59.60
2018-05-03T18:21:34.213Z,60.10
2018-05-03T18:24:01.835Z,59.70
2018-05-03T18:26:29.361Z,59.50
2018-05-03T18:28:56.890Z,60.30
2018-05-03T18:31:24.332Z,61.00
2018-05-03T18:33:51.807Z,61.90
2018-05-03T18:36:19.265Z,61.00
2018-05-03T18:38:46.713Z,62.40
2018-05-03T18:41:14.178Z,62.90
2018-05-03T18:43:41.672Z,63.00
2018-05-03T18:46:09.123Z,64.20
2018-05-03T18:48:36.592Z,64.40
2018-05-03T18:51:04.832Z,64.70
2018-05-03T18:53:32.354Z,64.70
2018-05-03T18:55:59.845Z,64.90
2018-05-03T18:58:27.317Z,64.80
2018-05-03T19:00:54.847Z,64.60
2018-05-03T19:03:22.272Z,65.20
2018-05-03T19:05:49.738Z,65.50
2018-05-03T19:08:17.205Z,65.90
2018-05-03T19:10:44.669Z,67.00
2018-05-03T19:13:12.160Z,68.00
2018-05-03T19:15:39.608Z,68.40
2018-05-03T19:18:07.110Z,68.30
2018-05-03T19:20:34.582Z,67.80
2018-05-03T19:23:02.061Z,68.60
2018-05-03T19:25:29.527Z,69.70
2018-05-03T19:27:57.066Z,69.60
2018-05-03T19:30:24.897Z,69.90
2018-05-03T19:32:53.131Z,70.50
2018-05-03T19:35:20.888Z,70.30
2018-05-03T19:37:48.352Z,70.50
2018-05-03T19:40:15.801Z,71.10
2018-05-03T19:42:43.638Z,71.70
2018-05-03T19:45:11.868Z,73.10
2018-05-03T19:47:39.700Z,73.00
2018-05-03T19:50:12.121Z,72.30
2018-05-03T19:52:39.826Z,72.20
2018-05-03T19:55:07.269Z,73.80
2018-05-03T19:57:34.747Z,73.40
2018-05-03T20:00:02.971Z,73.20
2018-05-03T20:02:30.428Z,73.20
2018-05-03T20:04:58.675Z,75.40
2018-05-03T20:07:26.148Z,75.00
2018-05-03T20:09:54.390Z,75.50
2018-05-03T20:12:21.840Z,75.60
2018-05-03T20:14:49.314Z,75.50
2018-05-03T20:17:16.821Z,75.90
2018-05-03T20:19:44.278Z,77.80
2018-05-03T20:22:11.728Z,79.20
2018-05-03T20:24:39.192Z,80.70
2018-05-03T20:27:06.640Z,81.40
2018-05-03T20:29:34.896Z,83.20
2018-05-03T20:32:02.345Z,83.10
2018-05-03T20:34:29.828Z,84.10
2018-05-03T20:36:57.317Z,84.70
2018-05-03T20:39:24.756Z,84.20
2018-05-03T20:41:52.228Z,85.40
2018-05-03T20:44:19.677Z,85.90
2018-05-03T20:46:47.140Z,87.20
2018-05-03T20:49:14.693Z,87.10
2018-05-03T20:51:42.920Z,87.60
2018-05-03T20:54:10.377Z,87.50
2018-05-03T20:56:37.861Z,89.30
2018-05-03T20:59:05.301Z,89.80
2018-05-03T21:01:33.140Z,90.20
2018-05-03T21:04:02.096Z,90.20
2018-05-03T21:06:29.614Z,90.20
2018-05-03T21:08:57.081Z,90.70
2018-05-03T21:11:24.538Z,90.80
2018-05-03T21:13:51.996Z,91.00
2018-05-03T21:16:19.472Z,90.90
2018-05-03T21:18:47.004Z,91.40
2018-05-03T21:21:15.204Z,91.50
2018-05-03T21:23:42.666Z,91.50
2018-05-03T21:26:10.136Z,91.90
2018-05-03T21:28:38.340Z,92.50
2018-05-03T21:31:05.788Z,92.40
2018-05-03T21:33:33.274Z,92.40
2018-05-03T21:36:00.741Z,92.30
2018-05-03T21:38:28.233Z,92.50
2018-05-03T21:40:55.731Z,92.80
2018-05-03T21:43:23.981Z,93.20
2018-05-03T21:45:51.464Z,93.20
2018-05-03T21:48:18.933Z,93.30
2018-05-03T21:50:46.405Z,93.80
2018-05-03T21:53:13.860Z,93.80
2018-05-03T21:55:41.340Z,94.10
2018-05-03T21:58:08.821Z,94.30
2018-05-03T22:00:36.263Z,94.40
2018-05-03T22:03:04.051Z,95.00
2018-05-03T22:05:31.513Z,94.80
2018-05-03T22:07:58.966Z,94.70
2018-05-03T22:10:26.490Z,94.80
2018-05-03T22:12:53.936Z,95.20
2018-05-03T22:15:21.400Z,95.30
2018-05-03T22:17:48.845Z,94.50
2018-05-03T22:20:16.297Z,94.00
2018-05-03T22:22:44.507Z,93.60
2018-05-03T22:25:11.969Z,93.60
2018-05-03T22:27:39.436Z,93.60
2018-05-03T22:30:07.662Z,93.60
2018-05-03T22:32:35.149Z,93.60
2018-05-03T22:35:02.623Z,93.60
2018-05-03T22:37:30.089Z,94.30
2018-05-03T22:39:57.570Z,94.40
2018-05-03T22:42:25.591Z,94.60
2018-05-03T22:44:53.093Z,94.40
2018-05-03T22:47:20.564Z,94.90
2018-05-03T22:49:48.004Z,94.80
2018-05-03T22:52:15.468Z,95.20
2018-05-03T22:54:42.909Z,95.20
2018-05-03T22:57:10.364Z,95.60
2018-05-03T22:59:37.812Z,95.60
2018-05-03T23:02:05.284Z,95.80
2018-05-03T23:04:32.765Z,96.10
2018-05-03T23:07:00.229Z,96.00
2018-05-03T23:09:27.725Z,96.40
2018-05-03T23:11:55.256Z,96.20
2018-05-03T23:14:22.704Z,96.60
2018-05-03T23:16:50.266Z,96.20
2018-05-03T23:19:17.772Z,96.50
2018-05-03T23:21:45.348Z,96.50
2018-05-03T23:24:12.788Z,96.70
2018-05-03T23:26:40.236Z,97.00
2018-05-03T23:29:08.477Z,97.50
2018-05-03T23:31:35.928Z,97.50
2018-05-03T23:34:03.388Z,96.90
2018-05-03T23:36:30.851Z,97.30
2018-05-03T23:38:58.320Z,97.20
2018-05-03T23:41:25.792Z,97.20
2018-05-03T23:43:53.248Z,97.50
2018-05-03T23:46:20.688Z,97.40
2018-05-03T23:48:48.147Z,97.50
2018-05-03T23:51:15.593Z,97.70
2018-05-03T23:53:43.049Z,97.80
2018-05-03T23:56:10.493Z,98.30
2018-05-03T23:58:38.733Z,98.00
